createdAt,value
2023-01-10T00:01:47.721Z,6.80
2023-01-10T00:04:14.750Z,6.80
2023-01-10T00:06:41.865Z,6.70
2023-01-10T00:09:10.488Z,6.70
2023-01-10T00:11:55.889Z,6.70
2023-01-10T00:14:22.834Z,6.70
2023-01-10T00:16:49.953Z,6.70
2023-01-10T00:19:16.972Z,6.70
2023-01-10T00:21:43.916Z,6.70
2023-01-10T00:24:22.276Z,6.70
2023-01-10T00:26:51.878Z,6.70
2023-01-10T00:29:20.482Z,6.80
2023-01-10T00:31:47.845Z,6.70
2023-01-10T00:34:15.179Z,6.80
2023-01-10T00:36:42.238Z,6.80
2023-01-10T00:39:11.208Z,6.70
2023-01-10T00:41:58.002Z,6.70
2023-01-10T00:44:26.121Z,6.70
2023-01-10T00:46:53.743Z,6.70
2023-01-10T00:49:20.789Z,6.70
2023-01-10T00:51:47.815Z,6.70
2023-01-10T00:54:15.402Z,6.60
2023-01-10T00:56:42.380Z,6.60
2023-01-10T00:59:09.569Z,6.60
2023-01-10T01:01:36.968Z,6.60
2023-01-10T01:04:04.391Z,6.50
2023-01-10T01:06:31.332Z,6.50
2023-01-10T01:08:58.344Z,6.40
2023-01-10T01:11:26.058Z,6.30
2023-01-10T01:13:53.168Z,6.30
2023-01-10T01:16:20.275Z,6.30
2023-01-10T01:18:47.376Z,6.20
2023-01-10T01:21:14.425Z,6.20
2023-01-10T01:23:41.472Z,6.20
2023-01-10T01:26:08.644Z,6.30
2023-01-10T01:28:35.621Z,6.30
2023-01-10T01:31:08.544Z,6.30
2023-01-10T01:33:35.829Z,6.20
2023-01-10T01:36:02.886Z,6.20
2023-01-10T01:38:29.908Z,6.20
2023-01-10T01:40:56.861Z,6.10
2023-01-10T01:43:23.764Z,6.10
2023-01-10T01:45:51.042Z,6.10
2023-01-10T01:48:18.109Z,6.10
2023-01-10T01:50:59.397Z,6.10
2023-01-10T01:53:37.268Z,6.00
2023-01-10T01:56:10.179Z,6.00
2023-01-10T01:58:45.956Z,6.00
2023-01-10T02:01:15.039Z,6.00
2023-01-10T02:03:45.015Z,5.90
2023-01-10T02:06:12.571Z,5.90
2023-01-10T02:08:47.657Z,5.90
2023-01-10T02:11:14.658Z,5.80
2023-01-10T02:13:44.623Z,5.80
2023-01-10T02:16:11.977Z,5.80
2023-01-10T02:18:42.563Z,5.80
2023-01-10T02:21:44.735Z,5.80
2023-01-10T02:24:37.874Z,5.80
2023-01-10T02:27:28.057Z,5.80
2023-01-10T02:30:22.882Z,5.70
2023-01-10T02:33:09.483Z,5.70
2023-01-10T02:35:56.787Z,5.70
2023-01-10T02:38:33.107Z,5.60
2023-01-10T02:41:34.551Z,5.60
2023-01-10T02:44:31.201Z,5.60
2023-01-10T02:46:58.185Z,5.50
2023-01-10T02:49:25.142Z,5.50
2023-01-10T02:51:52.330Z,5.50
2023-01-10T02:54:23.500Z,5.50
2023-01-10T02:57:24.421Z,5.40
2023-01-10T03:00:10.285Z,5.30
2023-01-10T03:02:57.381Z,5.30
2023-01-10T03:05:47.723Z,5.30
2023-01-10T03:08:27.046Z,5.30
2023-01-10T03:10:58.418Z,5.20
2023-01-10T03:13:27.746Z,5.20
2023-01-10T03:15:57.283Z,5.20
2023-01-10T03:18:32.224Z,5.20
2023-01-10T03:21:02.723Z,5.20
2023-01-10T03:23:32.930Z,5.20
2023-01-10T03:26:00.883Z,5.20
2023-01-10T03:28:51.457Z,5.20
2023-01-10T03:31:30.738Z,5.20
2023-01-10T03:33:58.345Z,5.20
2023-01-10T03:36:49.608Z,5.10
2023-01-10T03:39:36.567Z,5.10
2023-01-10T03:42:19.064Z,5.10
2023-01-10T03:45:13.665Z,5.10
2023-01-10T03:47:47.919Z,5.10
2023-01-10T03:50:26.737Z,5.10
2023-01-10T03:52:53.751Z,5.10
2023-01-10T03:55:24.023Z,5.10
2023-01-10T03:57:51.049Z,5.10
2023-01-10T04:00:18.778Z,5.10
2023-01-10T04:02:46.146Z,5.10
2023-01-10T04:05:13.430Z,5.10
2023-01-10T04:07:40.473Z,5.10
2023-01-10T04:10:08.256Z,5.10
2023-01-10T04:12:35.286Z,5.10
2023-01-10T04:15:03.151Z,5.10
2023-01-10T04:17:30.264Z,5.10
2023-01-10T04:19:57.253Z,5.00
2023-01-10T04:22:24.261Z,5.00
2023-01-10T04:24:54.578Z,5.00
2023-01-10T04:27:21.562Z,5.00
2023-01-10T04:29:48.716Z,5.00
2023-01-10T04:32:15.927Z,5.00
2023-01-10T04:34:42.895Z,4.90
2023-01-10T04:37:09.876Z,4.90
2023-01-10T04:39:36.857Z,4.90
2023-01-10T04:42:03.931Z,4.90
2023-01-10T04:44:30.858Z,5.00
2023-01-10T04:46:57.850Z,4.90
2023-01-10T04:49:24.869Z,5.00
2023-01-10T04:51:51.941Z,5.00
2023-01-10T04:54:23.033Z,5.00
2023-01-10T04:56:50.250Z,5.00
2023-01-10T04:59:17.714Z,5.10
2023-01-10T05:01:45.229Z,5.10
2023-01-10T05:04:12.465Z,5.10
2023-01-10T05:06:40.438Z,5.10
2023-01-10T05:09:08.564Z,5.10
2023-01-10T05:11:35.605Z,5.10
2023-01-10T05:14:02.748Z,5.10
2023-01-10T05:16:29.813Z,5.00
2023-01-10T05:18:56.828Z,5.00
2023-01-10T05:21:23.812Z,5.00
2023-01-10T05:23:50.857Z,5.00
2023-01-10T05:26:21.267Z,4.90
2023-01-10T05:28:48.688Z,4.90
2023-01-10T05:31:18.866Z,4.90
2023-01-10T05:33:47.757Z,4.90
2023-01-10T05:36:14.810Z,5.00
2023-01-10T05:38:41.861Z,5.00
2023-01-10T05:41:09.279Z,5.10
2023-01-10T05:43:36.530Z,5.10
2023-01-10T05:46:03.944Z,5.20
2023-01-10T05:48:30.967Z,5.30
2023-01-10T05:50:58.006Z,5.30
2023-01-10T05:53:25.117Z,5.40
2023-01-10T05:55:56.232Z,5.40
2023-01-10T05:58:24.158Z,5.50
2023-01-10T06:00:51.735Z,5.50
2023-01-10T06:03:19.101Z,5.50
2023-01-10T06:05:48.671Z,5.50
2023-01-10T06:08:16.421Z,5.50
2023-01-10T06:10:43.871Z,5.60
2023-01-10T06:13:12.270Z,5.50
2023-01-10T06:15:39.779Z,5.50
2023-01-10T06:18:07.608Z,5.50
2023-01-10T06:20:34.784Z,5.50
2023-01-10T06:23:04.771Z,5.50
2023-01-10T06:25:33.798Z,5.50
2023-01-10T06:28:00.755Z,5.50
2023-01-10T06:30:27.855Z,5.50
2023-01-10T06:33:00.163Z,5.50
2023-01-10T06:35:27.101Z,5.50
2023-01-10T06:37:54.123Z,5.50
2023-01-10T06:40:21.152Z,5.50
2023-01-10T06:42:48.138Z,5.50
2023-01-10T06:45:15.167Z,5.50
2023-01-10T06:47:42.498Z,5.50
2023-01-10T06:50:10.589Z,5.50
2023-01-10T06:52:38.068Z,5.50
2023-01-10T06:55:05.998Z,5.50
2023-01-10T06:57:35.660Z,5.50
2023-01-10T07:00:08.990Z,5.50
2023-01-10T07:02:36.824Z,5.50
2023-01-10T07:05:03.921Z,5.50
2023-01-10T07:07:30.932Z,5.60
2023-01-10T07:09:59.756Z,5.60
2023-01-10T07:12:26.750Z,5.70
2023-01-10T07:14:53.777Z,5.70
2023-01-10T07:17:21.124Z,5.80
2023-01-10T07:19:48.167Z,5.80
2023-01-10T07:22:15.193Z,5.90
2023-01-10T07:24:42.167Z,5.90
2023-01-10T07:27:09.133Z,6.00
2023-01-10T07:29:36.095Z,6.00
2023-01-10T07:32:03.245Z,6.10
2023-01-10T07:34:30.226Z,6.10
2023-01-10T07:36:57.283Z,6.20
2023-01-10T07:39:24.212Z,6.20
2023-01-10T07:41:52.807Z,6.30
2023-01-10T07:44:21.518Z,6.40
2023-01-10T07:46:48.557Z,6.40
2023-01-10T07:49:15.660Z,6.50
2023-01-10T07:51:42.591Z,6.50
2023-01-10T07:54:09.625Z,6.60
2023-01-10T07:56:36.617Z,6.70
2023-01-10T07:59:03.540Z,6.70
2023-01-10T08:01:30.565Z,6.80
2023-01-10T08:03:58.824Z,6.90
2023-01-10T08:06:26.198Z,6.90
2023-01-10T08:08:53.261Z,7.00
2023-01-10T08:11:20.224Z,7.10
2023-01-10T08:13:47.253Z,7.20
2023-01-10T08:16:15.629Z,7.20
2023-01-10T08:18:43.381Z,7.30
2023-01-10T08:21:10.617Z,7.40
2023-01-10T08:23:37.874Z,7.40
2023-01-10T08:26:05.937Z,7.50
2023-01-10T08:28:33.326Z,7.50
2023-01-10T08:31:06.273Z,7.60
2023-01-10T08:33:33.416Z,7.70
2023-01-10T08:36:00.428Z,7.80
2023-01-10T08:38:27.405Z,7.80
2023-01-10T08:40:58.253Z,7.90
2023-01-10T08:43:25.271Z,8.00
2023-01-10T08:45:52.273Z,8.10
2023-01-10T08:48:19.330Z,8.10
2023-01-10T08:50:46.317Z,8.20
2023-01-10T08:53:13.911Z,8.30
2023-01-10T08:55:41.009Z,8.40
2023-01-10T08:58:09.397Z,8.50
2023-01-10T09:00:36.419Z,8.60
2023-01-10T09:03:05.801Z,8.60
2023-01-10T09:05:32.865Z,8.70
2023-01-10T09:08:03.276Z,8.90
2023-01-10T09:10:30.694Z,9.00
2023-01-10T09:13:01.580Z,9.00
2023-01-10T09:15:34.148Z,9.10
2023-01-10T09:18:04.774Z,9.20
2023-01-10T09:20:33.574Z,9.30
2023-01-10T09:23:06.514Z,9.30
2023-01-10T09:25:34.167Z,9.40
2023-01-10T09:28:03.207Z,9.50
2023-01-10T09:30:31.100Z,9.60
2023-01-10T09:32:58.963Z,9.60
2023-01-10T09:35:27.333Z,9.70
2023-01-10T09:37:55.981Z,9.70
2023-01-10T09:40:51.349Z,9.80
2023-01-10T09:43:33.059Z,9.80
2023-01-10T09:46:12.513Z,9.90
2023-01-10T09:49:07.324Z,10.00
2023-01-10T09:51:41.030Z,10.00
2023-01-10T09:54:41.525Z,10.10
2023-01-10T09:57:18.778Z,10.10
2023-01-10T09:59:51.048Z,10.20
2023-01-10T10:02:21.013Z,10.20
2023-01-10T10:05:11.554Z,10.30
2023-01-10T10:07:38.756Z,10.30
2023-01-10T10:10:07.607Z,10.40
2023-01-10T10:12:37.613Z,10.40
2023-01-10T10:15:22.762Z,10.50
2023-01-10T10:17:53.479Z,10.50
2023-01-10T10:20:31.555Z,10.60
2023-01-10T10:23:20.022Z,10.60
2023-01-10T10:26:17.445Z,10.70
2023-01-10T10:28:54.983Z,10.70
2023-01-10T10:31:22.306Z,10.80
2023-01-10T10:34:11.913Z,10.80
2023-01-10T10:36:51.593Z,10.90
2023-01-10T10:39:23.875Z,10.90
2023-01-10T10:41:53.813Z,11.00
2023-01-10T10:44:44.966Z,11.10
2023-01-10T10:47:18.074Z,11.10
2023-01-10T10:50:02.048Z,11.20
2023-01-10T10:52:35.331Z,11.30
2023-01-10T10:55:05.075Z,11.30
2023-01-10T10:57:38.578Z,11.40
2023-01-10T11:00:09.127Z,11.40
2023-01-10T11:02:43.523Z,11.50
2023-01-10T11:05:18.438Z,11.60
2023-01-10T11:07:45.711Z,11.60
2023-01-10T11:10:20.909Z,11.70
2023-01-10T11:12:51.215Z,11.80
2023-01-10T11:15:39.121Z,11.80
2023-01-10T11:18:12.695Z,11.90
2023-01-10T11:20:49.065Z,12.00
2023-01-10T11:23:34.293Z,12.00
2023-01-10T11:26:01.566Z,12.10
2023-01-10T11:28:33.769Z,12.20
2023-01-10T11:31:02.247Z,12.20
2023-01-10T11:33:40.088Z,12.30
2023-01-10T11:36:13.194Z,12.40
2023-01-10T11:38:40.306Z,12.50
2023-01-10T11:41:25.289Z,12.60
2023-01-10T11:43:52.267Z,12.60
2023-01-10T11:46:25.802Z,12.70
2023-01-10T11:49:08.061Z,12.70
2023-01-10T11:51:48.665Z,12.80
2023-01-10T11:54:34.289Z,12.90
2023-01-10T11:57:21.323Z,13.00
2023-01-10T12:00:03.507Z,13.10
2023-01-10T12:02:44.674Z,13.10
2023-01-10T12:05:22.066Z,13.20
2023-01-10T12:07:57.882Z,13.20
2023-01-10T12:10:27.764Z,13.20
2023-01-10T12:13:00.160Z,13.20
2023-01-10T12:15:30.220Z,13.20
2023-01-10T12:18:02.359Z,13.30
2023-01-10T12:20:32.819Z,13.30
2023-01-10T12:23:11.342Z,13.30
2023-01-10T12:25:41.677Z,13.40
2023-01-10T12:28:25.469Z,13.40
2023-01-10T12:30:55.681Z,13.50
2023-01-10T12:33:28.709Z,13.50
2023-01-10T12:36:19.253Z,13.50
2023-01-10T12:39:03.866Z,13.50
2023-01-10T12:42:01.165Z,13.60
2023-01-10T12:44:43.675Z,13.70
2023-01-10T12:47:30.720Z,13.70
2023-01-10T12:50:02.468Z,13.70
2023-01-10T12:52:52.656Z,13.80
2023-01-10T12:55:22.687Z,13.80
2023-01-10T12:57:54.005Z,13.90
2023-01-10T13:00:37.658Z,13.90
2023-01-10T13:03:19.433Z,13.90
2023-01-10T13:05:49.685Z,13.90
2023-01-10T13:08:21.115Z,13.90
2023-01-10T13:10:51.468Z,13.80
2023-01-10T13:13:40.385Z,13.90
2023-01-10T13:16:13.065Z,13.90
2023-01-10T13:19:02.886Z,13.90
2023-01-10T13:21:32.628Z,13.90
2023-01-10T13:24:04.458Z,13.90
2023-01-10T13:26:53.887Z,13.90
2023-01-10T13:29:38.823Z,13.90
2023-01-10T13:32:30.509Z,13.90
2023-01-10T13:35:11.277Z,13.90
2023-01-10T13:37:40.387Z,13.90
2023-01-10T13:40:07.985Z,13.90
2023-01-10T13:42:54.836Z,13.80
2023-01-10T13:45:23.329Z,13.80
2023-01-10T13:47:57.033Z,13.80
2023-01-10T13:50:24.481Z,13.80
2023-01-10T13:53:15.437Z,13.80
2023-01-10T13:55:49.896Z,13.80
2023-01-10T13:58:16.869Z,13.70
2023-01-10T14:01:11.436Z,13.70
2023-01-10T14:03:52.506Z,13.70
2023-01-10T14:06:28.756Z,13.70
2023-01-10T14:09:01.890Z,13.60
2023-01-10T14:11:44.028Z,13.60
2023-01-10T14:14:22.385Z,13.60
2023-01-10T14:16:55.293Z,13.50
2023-01-10T14:19:32.257Z,13.50
2023-01-10T14:22:01.752Z,13.50
2023-01-10T14:24:43.939Z,13.50
2023-01-10T14:27:17.190Z,13.50
2023-01-10T14:30:05.983Z,13.40
2023-01-10T14:32:41.447Z,13.40
2023-01-10T14:35:15.199Z,13.40
2023-01-10T14:37:53.134Z,13.30
2023-01-10T14:40:28.707Z,13.30
2023-01-10T14:42:58.604Z,13.20
2023-01-10T14:45:51.793Z,13.20
2023-01-10T14:49:00.882Z,13.10
2023-01-10T14:51:29.320Z,13.00
2023-01-10T14:54:24.142Z,12.90
2023-01-10T14:56:53.132Z,12.90
2023-01-10T14:59:32.052Z,12.80
2023-01-10T15:02:02.092Z,12.80
2023-01-10T15:04:33.983Z,12.80
2023-01-10T15:07:10.281Z,12.70
2023-01-10T15:09:38.108Z,12.70
2023-01-10T15:12:08.246Z,12.60
2023-01-10T15:14:37.591Z,12.60
2023-01-10T15:17:06.720Z,12.50
2023-01-10T15:19:36.842Z,12.40
2023-01-10T15:22:15.900Z,12.40
2023-01-10T15:24:43.003Z,12.30
2023-01-10T15:27:15.175Z,12.20
2023-01-10T15:29:47.136Z,12.20
2023-01-10T15:32:35.721Z,12.10
2023-01-10T15:35:03.239Z,12.00
2023-01-10T15:37:36.578Z,12.00
2023-01-10T15:40:06.949Z,11.90
2023-01-10T15:42:35.444Z,11.80
2023-01-10T15:45:29.199Z,11.70
2023-01-10T15:48:03.235Z,11.60
2023-01-10T15:50:38.715Z,11.50
2023-01-10T15:53:11.154Z,11.40
2023-01-10T15:55:44.197Z,11.30
2023-01-10T15:58:22.487Z,11.20
2023-01-10T16:00:52.377Z,11.10
2023-01-10T16:03:45.137Z,11.00
2023-01-10T16:06:21.861Z,10.80
2023-01-10T16:08:52.497Z,10.70
2023-01-10T16:12:00.681Z,10.60
2023-01-10T16:14:27.801Z,10.50
2023-01-10T16:16:54.851Z,10.40
2023-01-10T16:19:22.297Z,10.30
2023-01-10T16:21:57.725Z,10.20
2023-01-10T16:24:28.778Z,10.10
2023-01-10T16:26:57.113Z,10.00
2023-01-10T16:29:24.530Z,9.90
2023-01-10T16:31:55.437Z,9.90
2023-01-10T16:34:22.570Z,9.80
2023-01-10T16:36:49.645Z,9.70
2023-01-10T16:39:18.826Z,9.70
2023-01-10T16:42:05.115Z,9.60
2023-01-10T16:44:33.178Z,9.50
2023-01-10T16:47:00.924Z,9.50
2023-01-10T16:49:28.128Z,9.50
2023-01-10T16:51:57.452Z,9.40
2023-01-10T16:54:28.445Z,9.40
2023-01-10T16:56:55.960Z,9.40
2023-01-10T16:59:23.070Z,9.30
2023-01-10T17:01:51.348Z,9.30
2023-01-10T17:04:35.603Z,9.30
2023-01-10T17:07:02.671Z,9.20
2023-01-10T17:09:30.870Z,9.20
2023-01-10T17:12:13.727Z,9.20
2023-01-10T17:14:40.696Z,9.10
2023-01-10T17:17:07.712Z,9.10
2023-01-10T17:19:34.784Z,9.00
2023-01-10T17:22:01.775Z,9.00
2023-01-10T17:24:29.965Z,8.90
2023-01-10T17:26:57.019Z,8.90
2023-01-10T17:29:23.964Z,8.90
2023-01-10T17:31:51.103Z,8.90
2023-01-10T17:34:18.211Z,8.90
2023-01-10T17:36:45.186Z,8.90
2023-01-10T17:39:12.329Z,8.90
2023-01-10T17:41:39.307Z,8.80
2023-01-10T17:44:06.262Z,8.80
2023-01-10T17:46:33.294Z,8.80
2023-01-10T17:49:02.398Z,8.80
2023-01-10T17:51:29.487Z,8.70
2023-01-10T17:53:56.698Z,8.70
2023-01-10T17:56:24.582Z,8.60
2023-01-10T17:58:52.952Z,8.60
2023-01-10T18:01:25.426Z,8.60
2023-01-10T18:03:52.962Z,8.50
2023-01-10T18:06:25.110Z,8.50
2023-01-10T18:08:53.088Z,8.50
2023-01-10T18:11:20.504Z,8.40
2023-01-10T18:13:47.466Z,8.40
2023-01-10T18:16:14.549Z,8.40
2023-01-10T18:18:41.535Z,8.30
2023-01-10T18:21:16.762Z,8.30
2023-01-10T18:23:44.202Z,8.30
2023-01-10T18:26:12.641Z,8.30
2023-01-10T18:28:42.905Z,8.30
2023-01-10T18:31:13.671Z,8.20
2023-01-10T18:33:40.891Z,8.20
2023-01-10T18:36:14.375Z,8.20
2023-01-10T18:38:41.807Z,8.20
2023-01-10T18:41:09.038Z,8.20
2023-01-10T18:43:36.046Z,8.20
2023-01-10T18:46:09.677Z,8.10
2023-01-10T18:48:37.228Z,8.10
2023-01-10T18:51:05.153Z,8.00
2023-01-10T18:53:32.824Z,8.00
2023-01-10T18:56:02.602Z,7.90
2023-01-10T18:58:38.418Z,7.90
2023-01-10T19:01:16.409Z,7.90
2023-01-10T19:03:45.555Z,7.90
2023-01-10T19:06:16.606Z,7.90
2023-01-10T19:08:45.911Z,7.80
2023-01-10T19:11:15.829Z,7.80
2023-01-10T19:13:44.601Z,7.80
2023-01-10T19:16:22.107Z,7.80
2023-01-10T19:19:11.173Z,7.70
2023-01-10T19:21:39.134Z,7.70
2023-01-10T19:24:10.859Z,7.70
2023-01-10T19:26:39.319Z,7.70
2023-01-10T19:29:06.321Z,7.60
2023-01-10T19:31:33.375Z,7.60
2023-01-10T19:34:01.237Z,7.60
2023-01-10T19:36:29.001Z,7.60
2023-01-10T19:38:58.561Z,7.60
2023-01-10T19:41:27.474Z,7.60
2023-01-10T19:44:00.256Z,7.50
2023-01-10T19:46:31.623Z,7.50
2023-01-10T19:49:03.334Z,7.50
2023-01-10T19:51:30.485Z,7.50
2023-01-10T19:53:57.712Z,7.50
2023-01-10T19:56:24.781Z,7.40
2023-01-10T19:58:53.701Z,7.40
2023-01-10T20:01:29.414Z,7.40
2023-01-10T20:03:58.795Z,7.40
2023-01-10T20:06:27.562Z,7.30
2023-01-10T20:08:55.089Z,7.30
2023-01-10T20:11:24.838Z,7.30
2023-01-10T20:13:52.340Z,7.30
2023-01-10T20:16:22.831Z,7.30
2023-01-10T20:18:51.481Z,7.20
2023-01-10T20:21:19.193Z,7.20
2023-01-10T20:23:46.874Z,7.20
2023-01-10T20:26:20.750Z,7.10
2023-01-10T20:28:48.741Z,7.10
2023-01-10T20:31:18.104Z,7.10
2023-01-10T20:33:45.231Z,7.00
2023-01-10T20:36:15.302Z,7.00
2023-01-10T20:38:42.547Z,7.00
2023-01-10T20:41:19.057Z,6.90
2023-01-10T20:43:46.487Z,6.90
2023-01-10T20:46:17.007Z,6.90
2023-01-10T20:48:45.071Z,6.80
2023-01-10T20:51:14.510Z,6.80
2023-01-10T20:53:41.822Z,6.70
2023-01-10T20:56:13.253Z,6.70
2023-01-10T20:58:40.512Z,6.70
2023-01-10T21:01:08.993Z,6.70
2023-01-10T21:03:36.220Z,6.70
2023-01-10T21:06:03.716Z,6.70
2023-01-10T21:08:30.816Z,6.70
2023-01-10T21:10:58.263Z,6.70
2023-01-10T21:13:25.594Z,6.70
2023-01-10T21:15:55.392Z,6.70
2023-01-10T21:18:24.861Z,6.70
2023-01-10T21:20:54.748Z,6.70
2023-01-10T21:23:24.243Z,6.70
2023-01-10T21:25:53.167Z,6.80
2023-01-10T21:28:21.189Z,6.70
2023-01-10T21:30:48.267Z,6.70
2023-01-10T21:33:15.351Z,6.80
2023-01-10T21:35:42.339Z,6.80
2023-01-10T21:38:09.328Z,6.80
2023-01-10T21:40:36.403Z,6.90
2023-01-10T21:43:03.520Z,6.90
2023-01-10T21:45:30.764Z,6.90
2023-01-10T21:47:57.777Z,6.80
2023-01-10T21:50:24.873Z,6.80
2023-01-10T21:52:52.173Z,6.70
2023-01-10T21:55:19.310Z,6.70
2023-01-10T21:57:46.297Z,6.60
2023-01-10T22:00:13.686Z,6.60
2023-01-10T22:02:40.950Z,6.50
2023-01-10T22:05:10.196Z,6.40
2023-01-10T22:07:37.938Z,6.40
2023-01-10T22:10:06.939Z,6.30
2023-01-10T22:12:34.448Z,6.30
2023-01-10T22:15:01.517Z,6.30
2023-01-10T22:17:28.580Z,6.20
2023-01-10T22:19:55.639Z,6.20
2023-01-10T22:22:22.595Z,6.10
2023-01-10T22:24:49.593Z,6.10
2023-01-10T22:27:16.862Z,6.10
2023-01-10T22:29:43.950Z,6.00
2023-01-10T22:32:11.285Z,6.00
2023-01-10T22:34:38.288Z,5.90
2023-01-10T22:37:05.343Z,5.90
2023-01-10T22:39:32.387Z,5.90
2023-01-10T22:41:59.449Z,5.90
2023-01-10T22:44:27.116Z,5.90
2023-01-10T22:46:55.579Z,5.80
2023-01-10T22:49:23.271Z,5.90
2023-01-10T22:51:50.754Z,5.90
2023-01-10T22:54:17.958Z,5.80
2023-01-10T22:56:46.422Z,5.80
2023-01-10T22:59:13.907Z,5.80
2023-01-10T23:01:40.961Z,5.70
2023-01-10T23:04:08.277Z,5.70
2023-01-10T23:06:35.416Z,5.70
2023-01-10T23:09:02.705Z,5.70
2023-01-10T23:11:29.777Z,5.60
2023-01-10T23:13:56.761Z,5.60
2023-01-10T23:16:29.772Z,5.60
2023-01-10T23:18:58.218Z,5.60
2023-01-10T23:21:26.454Z,5.50
2023-01-10T23:23:54.426Z,5.50
2023-01-10T23:26:22.549Z,5.50
2023-01-10T23:28:50.955Z,5.50
2023-01-10T23:31:21.944Z,5.40
2023-01-10T23:33:49.990Z,5.40
2023-01-10T23:36:17.734Z,5.40
2023-01-10T23:38:45.090Z,5.40
2023-01-10T23:41:12.301Z,5.40
2023-01-10T23:43:39.273Z,5.40
2023-01-10T23:46:06.922Z,5.40
2023-01-10T23:48:34.228Z,5.40
2023-01-10T23:51:01.241Z,5.40
2023-01-10T23:53:28.348Z,5.30
2023-01-10T23:55:55.339Z,5.30
2023-01-10T23:58:22.334Z,5.30
